Caledonia, WI (53108)

11:53 PM CST on February 06, 2016 (GMT -0600)
27th And Ryan Road | | Change Station
CLOSE
Current Station
Personal Weather Station
Location: Oak Creek, WI
Elevation: 720 ft
Nearby Weather Stations

Elev 720 ft 42.87 °N, 87.95 °W | Updated 3 minutes ago

Partly Cloudy
Partly Cloudy
32.3 °F
Feels Like 32 °F
N
0.0
Wind Variable Wind from SW
Gusts 17.0 mph

Today
High -- | Low -- °F
--% Chance of Precip.
Yesterday
High -- | Low -- °F
Precip. -- in
Pressure 30.06 in
Visibility 9.0 miles
Clouds Clear
Windchill 32 °F
Dew Point 29 °F
Humidity 88%
Rainfall 0.00 in
Snow Depth Not available.
7:01 AM 5:10 PM
Waning Crescent, 3% visible
METAR KRAC 070453Z AUTO 21007KT 9SM CLR 01/M03 A3004 RMK AO2 SLP180 T00061028
Pressure 30.06 in
Visibility 9.0 miles
Clouds Clear
Windchill 32 °F
Dew Point 29 °F
Humidity 88%
Rainfall 0.00 in
Snow Depth Not available.
7:01 AM 5:10 PM
Waning Crescent, 3% visible
METAR KRAC 070453Z AUTO 21007KT 9SM CLR 01/M03 A3004 RMK AO2 SLP180 T00061028

10-Day Weather Forecast

Almanac

Astronomy

Feb. 06, 2016 Rise Set
Actual Time
Civil Twilight
Nautical Twilight
Astronomical Twilight
Moon
Length of Visible Light
Length of Day
Tomorrow will be .
, % of the Moon is Illuminated

Today's Extremes

State Highs State Lows

Community

WunderPhotos

Upload Photos

1,891,167 photos uploaded!

WunderBlog® & News

Nearby

Air Quality

  Air Quality AQ Index Pollutant
Not available.

Snow Depth

Station Depth Elevation

Earthquake Activity

City Distance Mag. Time & Date
Minimum magnitude displayed is 2.5.

Coastal Water Temperatures

Place Temperature

Stations

Nearby Weather Stations

Station Location Temp. Windchill Dew Point Humidity Wind Precip. Elev Updated Type
                   

Watches & Warnings

There are currently no watches in effect.